Time;durP1;ratioP1;P1;durP2;ratioP2;P2;SDS_P1;SDS_P2;PMS_P1;PMS_P2;Temp;Humidity;BMP_temperature;BMP_pressure;BME280_temperature;BME280_humidity;BME280_pressure;Samples;Min_cycle;Max_cycle;Signal;HPM_P1;HPM_P2
2022/01/27 00:01:00;;;;;;;41.75;21.63;;;;;;;4.34;76.58;102727.09;5084460;28;20147;-89
2022/01/27 00:05:58;;;;;;;43.67;23.17;;;;;;;4.26;76.56;102719.09;5078268;28;20465;-90
2022/01/27 00:08:28;;;;;;;37.70;18.48;;;;;;;4.39;76.79;102733.28;5079999;28;20391;-89
2022/01/27 00:11:07;;;;;;;45.28;23.50;;;;;;;4.25;76.73;102716.47;5080500;28;20165;-89
2022/01/27 00:13:43;;;;;;;44.88;22.58;;;;;;;4.31;76.53;102704.34;5081771;28;20038;-90
2022/01/27 00:16:14;;;;;;;46.13;23.98;;;;;;;4.28;76.85;102693.81;5082135;28;20033;-89
2022/01/27 00:18:45;;;;;;;42.00;20.70;;;;;;;4.23;77.23;102671.91;5074650;28;20023;-90
2022/01/27 00:21:11;;;;;;;45.90;24.83;;;;;;;4.25;76.54;102669.34;5075912;28;20020;-89
2022/01/27 00:23:37;;;;;;;34.20;15.82;;;;;;;4.28;76.60;102677.22;5074923;28;20043;-90
2022/01/27 00:26:04;;;;;;;45.28;25.58;;;;;;;4.21;76.60;102663.19;5078610;28;20089;-89
2022/01/27 00:28:29;;;;;;;47.97;22.75;;;;;;;4.30;76.60;102667.69;5078862;28;20103;-89
2022/01/27 00:30:55;;;;;;;45.00;23.80;;;;;;;4.28;76.62;102677.22;5071815;28;20529;-88
2022/01/27 00:33:20;;;;;;;44.28;21.75;;;;;;;4.31;76.48;102677.28;5080352;28;20396;-89
2022/01/27 00:35:46;;;;;;;46.95;21.77;;;;;;;4.34;76.33;102680.84;5082243;28;20501;-89
2022/01/27 00:38:11;;;;;;;48.15;28.95;;;;;;;4.26;76.47;102681.56;5081685;28;20081;-89
2022/01/27 00:40:36;;;;;;;39.65;17.70;;;;;;;4.43;76.16;102687.06;5084609;28;20024;-89
2022/01/27 00:43:02;;;;;;;45.15;26.48;;;;;;;4.29;76.65;102673.75;5084907;28;20394;-90
2022/01/27 00:45:30;;;;;;;40.05;22.35;;;;;;;4.30;76.55;102659.81;5079345;28;20464;-89
2022/01/27 00:47:56;;;;;;;40.00;19.25;;;;;;;4.39;76.56;102672.19;5079195;28;20032;-89
2022/01/27 00:50:21;;;;;;;38.65;20.17;;;;;;;4.31;76.52;102662.47;5082455;28;20122;-89
2022/01/27 00:52:55;;;;;;;46.17;24.83;;;;;;;4.37;76.80;102652.94;5081379;28;20028;-89
2022/01/27 00:55:23;;;;;;;46.78;26.98;;;;;;;4.38;76.52;102655.56;5075966;28;20549;-89
2022/01/27 01:00:37;;;;;;;41.50;24.10;;;;;;;4.53;76.05;102665.41;5083308;28;20063;-88
2022/01/27 01:03:24;;;;;;;45.25;24.55;;;;;;;4.50;76.34;102652.25;5079003;28;20040;-89
2022/01/27 01:11:50;;;;;;;42.72;21.92;;;;;;;4.44;76.02;102650.44;5082837;28;20046;-89
2022/01/27 01:29:20;;;;;;;37.75;19.35;;;;;;;4.50;76.37;102624.31;5082708;28;20040;-90
2022/01/27 01:32:50;;;;;;;33.72;16.33;;;;;;;4.58;76.13;102617.44;5083484;28;20082;-89
2022/01/27 01:35:17;;;;;;;39.65;18.92;;;;;;;4.57;76.24;102617.44;5075403;28;20586;-89
2022/01/27 01:37:43;;;;;;;34.75;18.65;;;;;;;4.55;76.25;102611.28;5085432;28;20023;-89
2022/01/27 01:40:15;;;;;;;37.80;19.20;;;;;;;4.62;76.56;102613.13;5084504;28;20423;-91
2022/01/27 01:42:42;;;;;;;37.05;20.52;;;;;;;4.65;75.93;102593.94;5086391;28;20032;-90
2022/01/27 01:45:10;;;;;;;38.00;17.83;;;;;;;4.69;75.53;102583.53;5074808;28;20032;-90
2022/01/27 01:47:36;;;;;;;36.45;21.10;;;;;;;4.68;75.58;102587.00;5085415;28;20361;-88
2022/01/27 01:50:02;;;;;;;35.80;17.55;;;;;;;4.69;76.01;102574.78;5087792;28;20270;-89
2022/01/27 01:52:28;;;;;;;35.35;19.65;;;;;;;4.68;75.86;102589.63;5086265;28;20016;-88
2022/01/27 01:54:54;;;;;;;37.47;19.52;;;;;;;4.76;75.51;102598.47;5081104;28;20417;-89
2022/01/27 01:57:20;;;;;;;31.55;15.57;;;;;;;4.76;75.71;102602.84;5081056;28;20119;-90
2022/01/27 01:59:46;;;;;;;40.00;22.77;;;;;;;4.73;75.26;102600.16;5083522;28;20119;-88
2022/01/27 02:02:13;;;;;;;42.05;23.10;;;;;;;4.71;75.52;102588.75;5083395;28;20032;-89
2022/01/27 02:04:39;;;;;;;30.20;14.07;;;;;;;4.78;75.59;102588.88;5084111;28;20027;-89
2022/01/27 02:07:10;;;;;;;29.33;14.00;;;;;;;4.71;75.89;102584.44;5083519;28;20069;-89
2022/01/27 02:18:00;;;;;;;38.40;21.77;;;;;;;4.66;75.53;102528.47;5081469;28;20042;-89
2022/01/27 02:20:27;;;;;;;38.20;20.13;;;;;;;4.66;75.94;102533.69;5078842;28;20024;-88
2022/01/27 02:22:53;;;;;;;39.53;21.63;;;;;;;4.68;75.73;102541.59;5080543;28;20016;-89
2022/01/27 02:25:18;;;;;;;32.75;17.52;;;;;;;4.74;75.63;102541.66;5083630;28;20036;-90
2022/01/27 02:27:45;;;;;;;38.17;20.63;;;;;;;4.77;75.58;102547.81;5087058;28;20024;-89
2022/01/27 02:30:10;;;;;;;36.17;16.17;;;;;;;4.86;75.75;102554.91;5084569;28;20066;-89
2022/01/27 02:32:36;;;;;;;33.92;18.02;;;;;;;4.79;75.40;102542.59;5083571;28;20543;-89
2022/01/27 02:35:03;;;;;;;36.75;18.55;;;;;;;4.77;75.91;102546.94;5080935;28;20024;-90
2022/01/27 02:37:29;;;;;;;30.80;14.10;;;;;;;4.81;75.85;102544.38;5084980;28;20395;-89
2022/01/27 02:39:55;;;;;;;36.80;16.55;;;;;;;4.88;75.81;102552.28;5083586;28;20043;-90
2022/01/27 02:42:29;;;;;;;27.35;15.80;;;;;;;4.89;75.76;102543.56;5083703;28;20202;-89
2022/01/27 02:44:54;;;;;;;36.92;19.35;;;;;;;4.90;75.79;102540.97;5086832;28;20247;-89
2022/01/27 02:47:21;;;;;;;35.13;18.60;;;;;;;4.89;76.02;102533.06;5082340;28;20249;-89
2022/01/27 02:49:47;;;;;;;25.52;12.20;;;;;;;4.83;76.44;102539.13;5083808;28;20093;-89
2022/01/27 02:52:13;;;;;;;32.00;15.75;;;;;;;4.83;76.05;102532.16;5082083;28;20024;-89
2022/01/27 02:54:38;;;;;;;36.22;19.83;;;;;;;4.84;76.16;102514.69;5087623;28;20039;-89
2022/01/27 02:57:04;;;;;;;28.88;13.13;;;;;;;4.95;75.55;102525.31;5085293;28;20484;-89
2022/01/27 02:59:29;;;;;;;31.52;14.13;;;;;;;4.97;75.60;102508.72;5082583;28;20066;-89
2022/01/27 03:01:55;;;;;;;36.38;17.45;;;;;;;4.92;76.67;102504.28;5082064;28;20081;-89
2022/01/27 03:04:22;;;;;;;33.90;17.48;;;;;;;4.75;76.73;102467.44;5085424;28;20479;-89
2022/01/27 03:06:48;;;;;;;41.20;21.77;;;;;;;4.70;76.86;102467.38;5082300;28;20066;-90
2022/01/27 03:09:14;;;;;;;30.80;14.43;;;;;;;4.78;76.74;102470.97;5085054;28;20506;-89
2022/01/27 03:11:51;;;;;;;36.97;17.85;;;;;;;4.78;76.63;102489.31;5081872;28;20114;-89
2022/01/27 03:14:20;;;;;;;34.65;16.80;;;;;;;4.83;76.29;102492.84;5082803;28;20035;-89
2022/01/27 03:16:45;;;;;;;37.65;19.00;;;;;;;4.90;76.63;102503.41;5082880;28;20066;-89
2022/01/27 03:19:11;;;;;;;37.55;18.17;;;;;;;4.81;76.97;102491.09;5084443;28;20515;-89
2022/01/27 03:21:37;;;;;;;35.70;20.15;;;;;;;4.82;76.90;102492.84;5081127;28;20086;-89
2022/01/27 03:24:03;;;;;;;38.17;21.05;;;;;;;4.73;77.40;102482.25;5085378;28;20502;-89
2022/01/27 03:26:29;;;;;;;38.03;18.48;;;;;;;4.73;77.32;102469.16;5084895;28;20072;-89
2022/01/27 03:28:54;;;;;;;38.20;21.98;;;;;;;4.65;77.27;102469.06;5081827;28;20118;-89
2022/01/27 03:31:20;;;;;;;35.08;17.52;;;;;;;4.73;77.14;102469.16;5085698;28;20040;-89
2022/01/27 03:33:45;;;;;;;37.83;18.88;;;;;;;4.75;77.22;102465.69;5084860;28;20028;-89
2022/01/27 03:36:12;;;;;;;28.63;13.95;;;;;;;4.82;76.89;102451.78;5083879;28;20107;-90
2022/01/27 03:38:39;;;;;;;37.13;18.38;;;;;;;4.70;77.41;102456.91;5083684;28;20521;-89
2022/01/27 03:41:06;;;;;;;36.13;17.40;;;;;;;4.72;77.45;102470.03;5082494;28;20082;-90
2022/01/27 03:43:32;;;;;;;25.33;11.50;;;;;;;4.76;76.92;102459.59;5084026;28;20633;-90
2022/01/27 03:45:58;;;;;;;38.55;16.35;;;;;;;4.66;77.80;102467.34;5077232;28;20081;-89
2022/01/27 03:48:23;;;;;;;38.10;19.42;;;;;;;4.59;77.72;102464.66;5079264;28;20016;-89
2022/01/27 03:50:48;;;;;;;29.20;15.02;;;;;;;4.73;77.50;102461.31;5084470;28;20077;-89
2022/01/27 03:53:16;;;;;;;33.05;14.32;;;;;;;4.62;77.81;102463.84;5075302;28;20016;-89
2022/01/27 03:55:43;;;;;;;34.78;17.15;;;;;;;4.67;77.90;102461.25;5083343;28;20067;-89
2022/01/27 03:58:08;;;;;;;30.27;15.10;;;;;;;4.79;77.91;102467.47;5081303;28;20036;-90
2022/01/27 04:00:35;;;;;;;31.17;15.02;;;;;;;4.76;77.88;102461.34;5083468;28;20085;-89
2022/01/27 04:03:06;;;;;;;42.15;21.15;;;;;;;4.79;77.76;102457.00;5082466;28;20548;-88
2022/01/27 04:05:37;;;;;;;33.30;14.33;;;;;;;4.78;78.17;102450.00;5085524;28;20024;-89
2022/01/27 04:08:07;;;;;;;34.97;14.27;;;;;;;4.80;78.06;102444.75;5080638;28;20276;-89
2022/01/27 04:10:33;;;;;;;40.47;23.33;;;;;;;4.56;78.76;102414.84;5082584;28;20035;-89
2022/01/27 04:12:58;;;;;;;31.75;16.42;;;;;;;4.59;78.82;102417.50;5085854;28;20012;-88
2022/01/27 04:15:24;;;;;;;33.75;19.80;;;;;;;4.64;78.87;102427.16;5078905;28;20028;-89
2022/01/27 04:17:51;;;;;;;39.42;19.95;;;;;;;4.66;79.00;102431.53;5080024;28;20197;-89
2022/01/27 04:20:16;;;;;;;41.80;20.80;;;;;;;4.61;78.85;102426.25;5084871;28;20024;-89
2022/01/27 04:22:42;;;;;;;21.00;9.07;;;;;;;4.88;77.86;102431.75;5073247;28;20395;-89
2022/01/27 04:25:08;;;;;;;37.53;16.48;;;;;;;4.78;78.59;102417.69;5076242;28;20034;-89
2022/01/27 04:27:37;;;;;;;26.88;12.48;;;;;;;4.72;78.60;102412.41;5081782;28;20637;-88
2022/01/27 04:30:05;;;;;;;32.85;15.60;;;;;;;4.74;78.88;102419.41;5077293;28;20047;-89
2022/01/27 04:32:38;;;;;;;33.50;14.18;;;;;;;4.59;79.29;102408.78;5080460;28;20556;-89
2022/01/27 04:35:06;;;;;;;35.92;19.05;;;;;;;4.51;79.67;102406.06;5082084;28;20024;-88
2022/01/27 04:37:36;;;;;;;38.20;19.40;;;;;;;4.42;79.70;102392.88;5083631;28;20047;-89
2022/01/27 04:40:12;;;;;;;36.28;18.92;;;;;;;4.44;80.22;102396.41;5079800;28;20034;-89
2022/01/27 04:43:04;;;;;;;37.50;18.58;;;;;;;4.48;80.24;102398.22;5079397;28;20028;-89
2022/01/27 04:45:37;;;;;;;33.95;14.32;;;;;;;4.61;79.72;102389.56;5081156;28;20028;-89
2022/01/27 04:48:10;;;;;;;38.72;18.35;;;;;;;4.55;79.75;102384.28;5077556;28;20511;-89
2022/01/27 04:50:36;;;;;;;37.70;18.13;;;;;;;4.54;80.13;102393.03;5073014;28;20583;-89
2022/01/27 04:53:05;;;;;;;25.77;11.50;;;;;;;4.56;79.65;102393.91;5077982;28;20111;-88
2022/01/27 04:55:30;;;;;;;25.60;12.38;;;;;;;4.52;79.51;102397.38;5085842;28;20020;-90
2022/01/27 04:58:07;;;;;;;27.48;12.88;;;;;;;4.50;80.04;102386.00;5079823;28;20809;-89
2022/01/27 05:00:33;;;;;;;30.33;13.77;;;;;;;4.38;80.40;102374.50;5077157;28;20038;-89
2022/01/27 05:03:00;;;;;;;34.38;15.65;;;;;;;4.39;80.29;102366.69;5080654;28;20363;-89
2022/01/27 05:05:26;;;;;;;38.60;18.02;;;;;;;4.40;80.32;102363.22;5074794;28;20046;-89
2022/01/27 05:07:58;;;;;;;23.65;10.25;;;;;;;4.49;79.95;102365.03;5072390;28;20032;-89
2022/01/27 05:10:27;;;;;;;;;;;;;;;4.58;79.96;102370.38;5074315;28;20404;-89
2022/01/27 05:13:00;;;;;;;38.75;19.58;;;;;;;4.57;80.19;102360.75;5077894;28;20360;-89
2022/01/27 05:15:25;;;;;;;40.67;18.45;;;;;;;4.49;80.21;102363.28;5085374;28;20031;-89
2022/01/27 05:17:51;;;;;;;35.03;14.65;;;;;;;4.57;80.22;102368.63;5083399;28;20439;-90
2022/01/27 05:20:16;;;;;;;35.63;15.75;;;;;;;4.58;80.33;102357.25;5086117;28;20034;-89
2022/01/27 05:22:42;;;;;;;34.10;13.18;;;;;;;4.55;80.18;102352.88;5083294;28;20024;-90
2022/01/27 05:25:07;;;;;;;35.17;18.13;;;;;;;4.56;80.02;102353.75;5080789;28;20028;-90
2022/01/27 05:27:33;;;;;;;31.60;14.25;;;;;;;4.62;80.06;102348.56;5086328;28;20074;-89
2022/01/27 05:29:58;;;;;;;39.50;18.65;;;;;;;4.66;80.20;102358.19;5081232;28;20044;-89
2022/01/27 05:32:23;;;;;;;37.20;19.50;;;;;;;4.73;79.97;102340.78;5079907;28;20032;-89
2022/01/27 05:34:49;;;;;;;32.60;13.57;;;;;;;4.79;79.82;102338.22;5074075;28;20563;-89
2022/01/27 05:37:14;;;;;;;29.67;14.48;;;;;;;4.81;79.40;102329.53;5079108;28;20398;-90
2022/01/27 05:39:39;;;;;;;30.48;14.65;;;;;;;4.86;79.58;102325.19;5088553;28;20031;-89
2022/01/27 05:42:05;;;;;;;38.08;20.38;;;;;;;4.86;79.60;102334.78;5078012;28;20123;-90
2022/01/27 05:44:31;;;;;;;30.88;16.35;;;;;;;4.97;79.13;102327.00;5088613;28;20047;-89
2022/01/27 05:46:59;;;;;;;35.17;15.80;;;;;;;5.00;79.18;102330.53;5084267;28;20559;-90
2022/01/27 05:49:24;;;;;;;30.10;15.30;;;;;;;5.07;79.08;102334.06;5089564;28;20034;-89
2022/01/27 05:51:49;;;;;;;36.17;15.68;;;;;;;5.09;78.85;102330.59;5079080;28;20016;-89
2022/01/27 05:54:15;;;;;;;35.83;16.95;;;;;;;5.11;78.39;102312.22;5079144;28;20031;-89
2022/01/27 05:56:40;;;;;;;35.45;16.08;;;;;;;5.10;78.89;102324.47;5078931;28;20028;-90
2022/01/27 05:59:05;;;;;;;28.65;11.93;;;;;;;5.15;78.49;102308.78;5085394;28;20028;-89
2022/01/27 06:01:31;;;;;;;30.67;14.82;;;;;;;5.19;78.41;102330.66;5079461;28;20024;-88
2022/01/27 06:03:56;;;;;;;28.75;11.75;;;;;;;5.24;78.52;102326.31;5078778;28;20032;-90
2022/01/27 06:06:21;;;;;;;41.00;19.10;;;;;;;5.18;78.69;102332.41;5082240;28;20036;-89
2022/01/27 06:08:47;;;;;;;29.65;13.73;;;;;;;5.28;78.62;102325.44;5080997;28;20028;-89
2022/01/27 06:11:12;;;;;;;34.92;17.33;;;;;;;5.17;79.06;102311.38;5077252;28;20086;-89
2022/01/27 06:13:38;;;;;;;36.63;16.80;;;;;;;5.13;79.68;102302.66;5080992;28;20122;-88
2022/01/27 06:16:09;;;;;;;40.35;17.35;;;;;;;5.14;79.56;102306.16;5087280;28;20560;-89
2022/01/27 06:18:35;;;;;;;28.48;15.50;;;;;;;5.20;79.75;102314.03;5085182;28;20028;-89
2022/01/27 06:21:03;;;;;;;34.28;16.60;;;;;;;5.11;79.96;102307.88;5085798;28;20086;-89
2022/01/27 06:23:29;;;;;;;26.98;14.15;;;;;;;5.19;79.73;102307.91;5085727;28;20129;-89
2022/01/27 06:25:54;;;;;;;29.08;13.05;;;;;;;5.31;79.37;102304.47;5087849;28;20490;-89
2022/01/27 06:28:19;;;;;;;33.78;16.10;;;;;;;5.28;79.91;102314.97;5085971;28;20520;-89
2022/01/27 06:30:45;;;;;;;32.72;14.05;;;;;;;5.29;80.18;102300.97;5087179;28;20285;-89
2022/01/27 06:33:10;;;;;;;32.17;13.45;;;;;;;5.26;80.97;102316.69;5086380;28;20112;-89
2022/01/27 06:35:36;;;;;;;34.67;14.52;;;;;;;5.22;80.83;102309.66;5088860;28;20056;-89
2022/01/27 06:38:01;;;;;;;34.83;16.55;;;;;;;5.28;80.64;102307.09;5082926;28;20024;-89
2022/01/27 06:40:26;;;;;;;34.88;15.38;;;;;;;5.26;80.88;102300.94;5086255;28;20035;-89
2022/01/27 06:42:52;;;;;;;38.40;16.50;;;;;;;5.19;80.99;102280.81;5078811;28;20043;-89
2022/01/27 06:45:18;;;;;;;28.10;12.25;;;;;;;5.29;80.89;102285.25;5084545;28;20572;-89
2022/01/27 06:47:43;;;;;;;35.78;16.00;;;;;;;5.29;81.09;102274.75;5078988;28;20024;-89
2022/01/27 06:50:08;;;;;;;27.40;12.82;;;;;;;5.29;80.77;102280.00;5086857;28;20500;-89
2022/01/27 06:52:34;;;;;;;34.30;17.77;;;;;;;5.34;80.90;102265.16;5083221;28;20028;-89
2022/01/27 06:55:02;;;;;;;35.63;15.15;;;;;;;5.46;80.49;102290.56;5086312;28;20292;-89
2022/01/27 06:57:28;;;;;;;29.50;14.55;;;;;;;5.44;80.62;102287.06;5081636;28;20115;-89
2022/01/27 06:59:53;;;;;;;33.95;17.30;;;;;;;5.47;80.58;102287.06;5088662;28;20106;-88
2022/01/27 07:02:18;;;;;;;41.35;19.70;;;;;;;5.38;80.49;102269.56;5083201;28;20406;-89
2022/01/27 07:04:44;;;;;;;21.88;10.68;;;;;;;5.54;80.39;102275.72;5087362;28;20030;-88
2022/01/27 07:07:09;;;;;;;39.00;17.98;;;;;;;5.53;80.35;102287.09;5087893;28;20026;-89
2022/01/27 07:09:35;;;;;;;34.03;15.65;;;;;;;5.53;80.02;102266.97;5081623;28;20405;-89
2022/01/27 07:12:00;;;;;;;24.90;11.90;;;;;;;5.53;80.11;102263.50;5088618;28;20026;-89
2022/01/27 07:14:25;;;;;;;28.33;12.55;;;;;;;5.59;80.32;102277.47;5083894;28;20038;-89
2022/01/27 07:16:51;;;;;;;31.85;14.45;;;;;;;5.54;80.46;102275.72;5083478;28;20036;-89
2022/01/27 07:19:16;;;;;;;34.75;17.40;;;;;;;5.56;80.50;102274.00;5083448;28;20131;-89
2022/01/27 07:21:41;;;;;;;36.75;17.92;;;;;;;5.51;80.36;102268.75;5076258;28;20032;-89
2022/01/27 07:24:07;;;;;;;37.63;17.98;;;;;;;5.54;80.34;102283.59;5084316;28;20027;-89
2022/01/27 07:26:32;;;;;;;39.67;17.02;;;;;;;5.63;79.91;102281.88;5084338;28;20043;-89
2022/01/27 07:28:58;;;;;;;38.38;19.05;;;;;;;5.58;80.07;102282.75;5077792;28;20036;-89
2022/01/27 07:31:23;;;;;;;36.30;16.20;;;;;;;5.62;80.18;102289.75;5078262;28;20047;-88
2022/01/27 07:33:51;;;;;;;21.45;10.02;;;;;;;5.78;79.79;102309.03;5079753;28;20028;-90
2022/01/27 07:36:16;;;;;;;37.72;14.43;;;;;;;5.77;79.63;102287.16;5082325;28;20028;-90
2022/01/27 07:38:42;;;;;;;35.65;17.42;;;;;;;5.80;79.73;102305.56;5082575;28;20036;-90
2022/01/27 07:41:08;;;;;;;30.42;12.43;;;;;;;5.80;79.76;102299.44;5083348;28;20070;-89
2022/01/27 07:43:33;;;;;;;35.83;17.70;;;;;;;5.79;79.50;102292.44;5083788;28;21734;-88
2022/01/27 07:45:59;;;;;;;37.60;16.27;;;;;;;5.80;79.64;102287.19;5081530;28;20081;-89
2022/01/27 07:48:26;;;;;;;37.10;15.60;;;;;;;5.84;79.40;102282.84;5078477;28;20412;-89
2022/01/27 07:50:51;;;;;;;37.63;14.80;;;;;;;5.81;80.33;102293.31;5079898;28;20046;-89
2022/01/27 07:53:16;;;;;;;33.45;15.50;;;;;;;5.77;81.55;102292.41;5077590;28;20386;-89
2022/01/27 07:55:42;;;;;;;31.20;14.13;;;;;;;5.63;82.29;102281.88;5082850;28;20111;-90
2022/01/27 07:58:07;;;;;;;48.40;20.77;;;;;;;5.48;84.30;102308.06;5083480;28;20373;-89
2022/01/27 08:00:33;;;;;;;43.63;16.08;;;;;;;5.48;84.64;102305.44;5080752;28;20247;-88
2022/01/27 08:02:58;;;;;;;41.38;18.35;;;;;;;5.35;85.44;102304.50;5085177;28;20032;-88
2022/01/27 08:05:24;;;;;;;39.88;17.02;;;;;;;5.35;85.55;102295.75;5083620;28;20027;-88
2022/01/27 08:07:49;;;;;;;51.47;20.52;;;;;;;5.37;86.76;102305.41;5085866;28;20480;-88
2022/01/27 08:10:15;;;;;;;45.67;18.38;;;;;;;5.23;87.56;102296.59;5087093;28;20059;-88
2022/01/27 08:12:42;;;;;;;32.53;14.00;;;;;;;5.36;86.40;102310.59;5084818;28;20284;-89
2022/01/27 08:15:08;;;;;;;44.08;16.60;;;;;;;5.26;87.82;102307.06;5080612;28;20269;-89
2022/01/27 08:17:33;;;;;;;48.42;19.80;;;;;;;5.30;87.07;102300.09;5076173;28;20015;-89
2022/01/27 08:19:59;;;;;;;38.80;16.50;;;;;;;5.33;87.86;102297.50;5076999;28;20453;-89
2022/01/27 08:22:24;;;;;;;27.63;11.32;;;;;;;5.31;87.88;102296.59;5086010;28;20068;-89
2022/01/27 08:24:49;;;;;;;58.00;23.15;;;;;;;5.28;89.17;102305.34;5082201;28;20107;-89
2022/01/27 08:27:18;;;;;;;73.97;29.67;;;;;;;5.15;89.18;102300.91;5079180;28;20085;-89
2022/01/27 08:29:48;;;;;;;47.30;17.05;;;;;;;5.23;89.19;102300.97;5080049;28;20032;-89
2022/01/27 08:32:27;;;;;;;54.45;21.02;;;;;;;5.26;89.27;102295.72;5074447;28;20046;-90
2022/01/27 08:34:52;;;;;;;36.42;16.30;;;;;;;5.37;88.13;102294.03;5085369;28;20055;-88
2022/01/27 08:37:18;;;;;;;64.10;27.00;;;;;;;5.22;89.25;102291.31;5087985;28;20438;-89
2022/01/27 08:39:46;;;;;;;40.85;16.45;;;;;;;5.28;88.81;102287.00;5084199;28;20031;-89
2022/01/27 08:42:12;;;;;;;71.80;29.20;;;;;;;5.29;90.01;102307.09;5082018;28;20396;-89
2022/01/27 08:44:38;;;;;;;61.92;24.52;;;;;;;5.31;90.17;102301.84;5078178;28;20267;-89
2022/01/27 08:47:05;;;;;;;66.47;25.48;;;;;;;5.28;89.80;102288.75;5083950;28;20477;-90
2022/01/27 08:49:31;;;;;;;57.55;23.55;;;;;;;5.29;89.85;102286.13;5082505;28;20035;-89
2022/01/27 08:51:56;;;;;;;48.25;20.48;;;;;;;5.37;89.48;102292.28;5079125;28;20020;-90
2022/01/27 08:54:22;;;;;;;50.00;21.75;;;;;;;5.42;88.92;102288.81;5084206;28;20031;-89
2022/01/27 08:56:48;;;;;;;45.67;19.92;;;;;;;5.39;88.83;102292.28;5086808;28;20028;-90
2022/01/27 08:59:14;;;;;;;56.83;21.50;;;;;;;5.41;89.87;102282.69;5085165;28;20020;-89
2022/01/27 09:01:40;;;;;;;28.05;12.95;;;;;;;5.57;88.57;102291.47;5084807;28;20028;-89
2022/01/27 09:04:07;;;;;;;70.20;26.30;;;;;;;5.55;89.59;102299.38;5080189;28;20024;-89
2022/01/27 09:06:32;;;;;;;40.85;17.48;;;;;;;5.59;89.01;102285.34;5088615;28;20553;-89
2022/01/27 09:08:59;;;;;;;56.75;23.75;;;;;;;5.63;89.08;102296.75;5082681;28;20122;-91
2022/01/27 09:11:24;;;;;;;68.85;29.65;;;;;;;5.66;88.84;102295.91;5081222;28;20511;-89
2022/01/27 09:13:52;;;;;;;53.90;20.13;;;;;;;5.70;89.60;102281.91;5071661;28;20020;-89
2022/01/27 09:16:18;;;;;;;36.67;15.73;;;;;;;5.77;89.42;102289.78;5083247;28;20080;-89
2022/01/27 09:18:44;;;;;;;66.03;27.20;;;;;;;5.73;89.49;102281.91;5077759;28;21022;-89
2022/01/27 09:21:17;;;;;;;56.42;22.98;;;;;;;5.81;88.78;102304.69;5079350;28;20109;-89
2022/01/27 09:23:43;;;;;;;58.83;28.30;;;;;;;5.75;89.50;102288.94;5073541;28;20060;-89
2022/01/27 09:26:38;;;;;;;48.45;22.05;;;;;;;5.78;89.88;102283.69;5084023;28;20062;-89
2022/01/27 09:28:53;;;;;;;51.85;20.52;;;;;;;5.84;89.55;102282.84;5083137;28;20043;-89
2022/01/27 09:31:20;;;;;;;46.03;18.13;;;;;;;5.86;89.40;102286.31;5080536;28;20408;-89
2022/01/27 09:33:47;;;;;;;55.00;23.48;;;;;;;5.88;89.23;102279.34;5081783;28;20020;-89
2022/01/27 09:36:12;;;;;;;56.85;23.92;;;;;;;5.96;89.39;102285.50;5084718;28;20031;-88
2022/01/27 09:38:38;;;;;;;48.83;18.75;;;;;;;5.84;90.13;102282.84;5079572;28;20020;-89
2022/01/27 09:41:07;;;;;;;64.38;26.10;;;;;;;5.89;89.23;102279.34;5073590;28;20030;-89
2022/01/27 09:43:34;;;;;;;32.97;15.80;;;;;;;5.99;88.99;102282.88;5082244;28;20036;-89
2022/01/27 09:46:03;;;;;;;36.13;15.55;;;;;;;6.02;89.21;102285.53;5080887;28;20473;-90
2022/01/27 09:48:36;;;;;;;40.35;18.30;;;;;;;6.02;88.94;102276.78;5082799;28;20048;-89
2022/01/27 09:51:23;;;;;;;30.45;14.05;;;;;;;6.07;88.76;102289.03;5079857;28;20361;-90
2022/01/27 09:53:53;;;;;;;43.85;21.38;;;;;;;6.05;88.85;102289.91;5080720;28;20035;-89
2022/01/27 09:56:19;;;;;;;;;;;;;;;6.20;87.93;102302.16;5079736;28;20020;-89
2022/01/27 09:58:45;;;;;;;46.88;21.02;;;;;;;6.05;89.25;102295.16;5084128;28;19961;-89
2022/01/27 10:01:10;;;;;;;50.28;21.08;;;;;;;6.18;88.88;102301.31;5088271;28;20024;-89
2022/01/27 10:04:09;;;;;;;51.25;24.00;;;;;;;6.21;88.57;102317.06;5087158;28;20039;-89
2022/01/27 10:06:35;;;;;;;39.50;16.98;;;;;;;6.18;89.36;102302.19;5078571;28;20032;-89
2022/01/27 10:09:26;;;;;;;37.60;19.73;;;;;;;6.22;89.44;102306.56;5081579;28;20799;-90
2022/01/27 10:11:52;;;;;;;49.60;21.65;;;;;;;6.26;89.45;102315.31;5075749;28;20046;-89
2022/01/27 10:14:22;;;;;;;37.45;18.25;;;;;;;6.27;89.93;102315.31;5080463;28;20032;-89
2022/01/27 10:16:50;;;;;;;46.50;24.60;;;;;;;6.10;90.36;102289.03;5076317;28;20055;-89
2022/01/27 10:19:16;;;;;;;48.63;20.90;;;;;;;6.18;90.80;102293.44;5081063;28;20028;-89
2022/01/27 10:21:42;;;;;;;28.52;14.43;;;;;;;6.24;90.01;102296.06;5087508;28;20507;-89
2022/01/27 10:24:19;;;;;;;35.58;17.20;;;;;;;6.34;89.76;102300.44;5078054;28;20031;-89
2022/01/27 10:27:15;;;;;;;41.63;22.13;;;;;;;6.30;90.18;102296.06;5079503;28;20020;-90
2022/01/27 10:29:50;;;;;;;36.33;18.55;;;;;;;6.33;89.73;102288.19;5083161;28;20500;-90
2022/01/27 10:32:15;;;;;;;31.42;14.48;;;;;;;6.34;89.58;102293.47;5075106;28;20059;-90
2022/01/27 10:34:57;;;;;;;27.48;13.15;;;;;;;6.37;89.67;102296.06;5077874;28;20126;-90
2022/01/27 10:37:23;;;;;;;37.08;18.30;;;;;;;6.40;89.93;102300.47;5073684;28;20558;-89
2022/01/27 10:39:48;;;;;;;29.00;13.70;;;;;;;6.49;89.34;102305.72;5076449;28;20016;-90
2022/01/27 10:42:14;;;;;;;28.67;14.40;;;;;;;6.44;89.42;102298.72;5082200;28;20028;-89
2022/01/27 10:44:54;;;;;;;43.17;21.20;;;;;;;6.32;90.35;102296.94;5083085;28;20016;-90
2022/01/27 10:47:23;;;;;;;42.65;24.02;;;;;;;6.43;90.26;102297.81;5083802;28;20039;-89
2022/01/27 10:50:04;;;;;;;30.15;15.30;;;;;;;6.50;89.76;102304.84;5077763;28;20636;-90
2022/01/27 10:52:41;;;;;;;29.15;13.32;;;;;;;6.54;89.65;102301.34;5069833;28;20705;-90
2022/01/27 10:55:10;;;;;;;37.35;20.75;;;;;;;6.45;90.25;102296.06;5075845;28;20032;-89
2022/01/27 10:57:36;;;;;;;34.17;17.83;;;;;;;6.52;90.02;102296.94;5080314;28;20070;-90
2022/01/27 11:00:13;;;;;;;34.67;15.38;;;;;;;6.58;89.41;102295.22;5072877;28;20488;-89
2022/01/27 11:02:57;;;;;;;23.15;10.93;;;;;;;6.62;89.50;102309.19;5081207;28;20024;-89
2022/01/27 11:05:25;;;;;;;40.40;19.52;;;;;;;6.58;89.92;102292.56;5074556;28;20036;-90
2022/01/27 11:07:50;;;;;;;33.28;18.45;;;;;;;6.68;89.45;102301.34;5075233;28;20082;-90
2022/01/27 11:10:17;;;;;;;26.30;13.60;;;;;;;6.74;89.45;102288.19;5077859;28;20039;-89
2022/01/27 11:12:44;;;;;;;33.65;16.58;;;;;;;6.73;89.36;102291.69;5085165;28;20054;-89
2022/01/27 11:15:10;;;;;;;34.67;19.52;;;;;;;6.72;89.94;102289.06;5088547;28;20035;-90
2022/01/27 11:17:37;;;;;;;25.92;13.30;;;;;;;6.81;89.78;102289.06;5083906;28;20487;-89
2022/01/27 11:22:47;;;;;;;30.45;17.10;;;;;;;6.88;89.85;102280.28;5084832;28;20150;-90
2022/01/27 11:27:43;;;;;;;29.92;17.70;;;;;;;6.96;89.53;102267.13;5078739;28;20048;-90
2022/01/27 11:30:37;;;;;;;26.52;14.18;;;;;;;7.02;89.35;102259.22;5077178;28;20249;-89
2022/01/27 11:33:10;;;;;;;26.15;13.05;;;;;;;7.04;89.62;102260.06;5079519;28;20024;-89
2022/01/27 11:35:36;;;;;;;38.05;17.98;;;;;;;7.08;89.99;102249.53;5076529;28;20036;-89
2022/01/27 11:38:04;;;;;;;27.65;13.23;;;;;;;7.16;89.86;102253.03;5080090;28;20034;-89
2022/01/27 11:40:36;;;;;;;25.17;11.25;;;;;;;7.20;88.83;102246.00;5076533;28;20028;-89
2022/01/27 11:43:13;;;;;;;40.83;21.05;;;;;;;7.19;89.49;102246.03;5070397;28;20056;-89
2022/01/27 11:45:43;;;;;;;23.80;12.00;;;;;;;7.29;89.45;102248.59;5086185;28;20023;-89
2022/01/27 11:48:11;;;;;;;36.92;17.33;;;;;;;7.28;90.01;102238.97;5077724;28;20035;-89
2022/01/27 11:50:53;;;;;;;30.92;19.65;;;;;;;7.24;89.91;102236.34;5077800;28;20398;-89
2022/01/27 11:53:39;;;;;;;32.72;16.65;;;;;;;7.30;90.09;102241.56;5077744;28;20043;-89
2022/01/27 11:56:23;;;;;;;25.15;12.25;;;;;;;7.44;89.71;102252.91;5073936;28;20027;-88
2022/01/27 11:58:50;;;;;;;27.48;13.73;;;;;;;7.43;89.94;102250.31;5070414;28;20032;-89
2022/01/27 12:01:17;;;;;;;16.15;8.52;;;;;;;7.43;89.56;102234.50;5086785;28;20046;-89